Terminal Aerodrome Forecast
Issued by NWS Twin Cities, MN

Home | Current Version | Previous Version | Text Only | Print | Product List | Glossary On
Versions: 1 2 3 4 5 6 7 8 9 10 11 12 13 14 15 16 17 18 19 20 21 22 23
000
FTUS43 KMPX 312320
TAFSTC
TAF
KSTC 312320Z 0100/0124 19009KT P6SM FEW050 FEW250
     FM011100 VRB03KT P6SM SCT070 BKN090
     FM011500 19007KT P6SM SCT090 BKN200=

USA.gov is the U.S. government's official web portal to all federal, state and local government web resources and services.